Time;durP1;ratioP1;P1;durP2;ratioP2;P2;SDS_P1;SDS_P2;PMS_P1;PMS_P2;Temp;Humidity;BMP_temperature;BMP_pressure;BME280_temperature;BME280_humidity;BME280_pressure;Samples;Min_cycle;Max_cycle;Signal;HPM_P1;HPM_P2
2022/03/07 00:00:10;;;;;;;;;;;;;;;;;;349932;28;1280;-75
2022/03/07 00:00:20;;;;;;;;;;;;;;;;;;349972;28;831;-75
2022/03/07 00:00:31;;;;;;;;;;;;;;;;;;349893;28;916;-74
2022/03/07 00:00:41;;;;;;;;;;;;;;;;;;350024;28;980;-74
2022/03/07 00:00:51;;;;;;;;;;;;;;;;;;349944;28;973;-74
2022/03/07 00:01:04;;;;;;;;;;;;;;;;;;350037;28;849;-75
2022/03/07 00:01:14;;;;;;;;;;;;;;;;;;349907;28;972;-75
2022/03/07 00:01:25;;;;;;;;;;;;;;;;;;349977;28;957;-75
2022/03/07 00:01:36;;;;;;;;;;;;;;;;;;349949;28;957;-75
2022/03/07 00:01:46;;;;;;;;;;;;;;;;;;349866;28;1333;-74
2022/03/07 00:01:57;;;;;;;;;;;;;;;;;;350042;28;813;-75
2022/03/07 00:02:08;;;;;;;;;;;;;;;;;;349964;28;929;-75
2022/03/07 00:02:18;;;;;;;;;;;;;;;;;;349956;28;794;-75
2022/03/07 00:02:28;;;;;;;;;;;;;;;;;;349897;28;1130;-74
2022/03/07 00:02:39;;;;;;;;;;;;;;;;;;349933;28;964;-75
2022/03/07 00:02:49;;;;;;;;;;;;;;;;;;349923;28;937;-75
2022/03/07 00:02:59;;;;;;;;;;;;;;;;;;348474;28;1914;-75
2022/03/07 00:03:09;;;;;;;;;;;;;;;;;;349436;28;1745;-74
2022/03/07 00:03:20;;;;;;;;;;;;;;;;;;349973;28;865;-75
2022/03/07 00:03:30;;;;;;;;;;;;;;;;;;349936;28;1067;-75
2022/03/07 00:03:40;;;;;;;;;;;;;;;;;;349899;28;921;-75
2022/03/07 00:03:51;;;;;;;;;;;;;;;;;;349991;28;770;-75
2022/03/07 00:04:02;;;;;;;;;;;;;;;;;;349906;28;999;-75
2022/03/07 00:04:14;;;;;;;;;;;;;;;;;;349907;28;949;-75
2022/03/07 00:04:24;;;;;;;;;;;;;;;;;;349999;28;916;-75
2022/03/07 00:04:34;;;;;;;;;;;;;;;;;;349960;28;921;-75
2022/03/07 00:04:45;;;;;;;;;;;;;;;;;;348842;28;1855;-75
2022/03/07 00:04:55;;;;;;;;;;;;;;;;;;349264;28;1808;-75
2022/03/07 00:05:05;;;;;;;;;;;;;;;;;;349925;28;999;-75
2022/03/07 00:05:15;;;;;;;;;;;;;;;;;;349959;28;984;-75
2022/03/07 00:05:26;;;;;;;;;;;;;;;;;;349938;28;936;-75
2022/03/07 00:05:36;;;;;;;;;;;;;;;;;;349953;28;881;-75
2022/03/07 00:05:46;;;;;;;;;;;;;;;;;;349954;28;806;-75
2022/03/07 00:05:56;;;;;;;;;;;;;;;;;;349962;28;1070;-74
2022/03/07 00:06:07;;;;;;;;;;;;;;;;;;349924;28;920;-75
2022/03/07 00:06:17;;;;;;;;;;;;;;;;;;349924;28;886;-75
2022/03/07 00:06:27;;;;;;;;;;;;;;;;;;349986;28;905;-75
2022/03/07 00:06:37;;;;;;;;;;;;;;;;;;349996;28;936;-75
2022/03/07 00:06:48;;;;;;;;;;;;;;;;;;349988;28;905;-75
2022/03/07 00:06:58;;;;;;;;;;;;;;;;;;349906;28;980;-75
2022/03/07 00:07:09;;;;;;;;;;;;;;;;;;349911;28;909;-75
2022/03/07 00:07:19;;;;;;;;;;;;;;;;;;349952;28;906;-75
2022/03/07 00:07:29;;;;;;;;;;;;;;;;;;350013;28;801;-75
2022/03/07 00:07:39;;;;;;;;;;;;;;;;;;349951;28;905;-75
2022/03/07 00:07:49;;;;;;;;;;;;;;;;;;349995;28;762;-75
2022/03/07 00:08:00;;;;;;;;;;;;;;;;;;349895;28;953;-74
2022/03/07 00:08:10;;;;;;;;;;;;;;;;;;350002;28;952;-75
2022/03/07 00:08:20;;;;;;;;;;;;;;;;;;350007;28;928;-74
2022/03/07 00:08:31;;;;;;;;;;;;;;;;;;349941;28;1314;-75
2022/03/07 00:08:41;;;;;;;;;;;;;;;;;;349972;28;821;-75
2022/03/07 00:08:51;;;;;;;;;;;;;;;;;;349931;28;964;-75
2022/03/07 00:09:01;;;;;;;;;;;;;;;;;;349925;28;968;-75
2022/03/07 00:09:12;;;;;;;;;;;;;;;;;;349965;28;979;-75
2022/03/07 00:09:22;;;;;;;;;;;;;;;;;;349957;28;952;-75
2022/03/07 00:09:33;;;;;;;;;;;;;;;;;;350000;28;924;-75
2022/03/07 00:09:43;;;;;;;;;;;;;;;;;;349917;28;878;-75
2022/03/07 00:09:53;;;;;;;;;;;;;;;;;;349965;28;924;-75
2022/03/07 00:10:03;;;;;;;;;;;;;;;;;;349974;28;984;-75
2022/03/07 00:10:14;;;;;;;;;;;;;;;;;;349970;28;901;-75
2022/03/07 00:10:24;;;;;;;;;;;;;;;;;;349990;28;797;-75
2022/03/07 00:10:34;;;;;;;;;;;;;;;;;;349925;28;933;-75
2022/03/07 00:10:45;;;;;;;;;;;;;;;;;;349962;28;790;-74
2022/03/07 00:10:55;;;;;;;;;;;;;;;;;;349982;28;984;-75
2022/03/07 00:11:05;;;;;;;;;;;;;;;;;;349942;28;924;-75
2022/03/07 00:11:16;;;;;;;;;;;;;;;;;;349887;28;873;-75
2022/03/07 00:11:28;;;;;;;;;;;;;;;;;;350000;28;924;-75
2022/03/07 00:11:38;;;;;;;;;;;;;;;;;;349717;28;1816;-75
2022/03/07 00:11:49;;;;;;;;;;;;;;;;;;349479;28;1643;-74
2022/03/07 00:11:59;;;;;;;;;;;;;;;;;;348741;28;1733;-75
2022/03/07 00:12:09;;;;;;;;;;;;;;;;;;348545;28;871;-75
2022/03/07 00:12:19;;;;;;;;;;;;;;;;;;348501;28;1749;-75
2022/03/07 00:12:30;;;;;;;;;;;;;;;;;;349385;28;1710;-75
2022/03/07 00:12:40;;;;;;;;;;;;;;;;;;349911;28;925;-74
2022/03/07 00:12:50;;;;;;;;;;;;;;;;;;349956;28;1042;-74
2022/03/07 00:13:00;;;;;;;;;;;;;;;;;;349986;28;972;-75
2022/03/07 00:13:10;;;;;;;;;;;;;;;;;;349942;28;976;-75
2022/03/07 00:13:21;;;;;;;;;;;;;;;;;;349884;28;932;-75
2022/03/07 00:13:31;;;;;;;;;;;;;;;;;;349969;28;785;-75
2022/03/07 00:13:42;;;;;;;;;;;;;;;;;;349944;28;996;-75
2022/03/07 00:13:53;;;;;;;;;;;;;;;;;;349932;28;933;-75
2022/03/07 00:14:03;;;;;;;;;;;;;;;;;;349982;28;825;-75
2022/03/07 00:14:13;;;;;;;;;;;;;;;;;;349890;28;913;-75
2022/03/07 00:14:23;;;;;;;;;;;;;;;;;;349950;28;933;-75
2022/03/07 00:14:33;;;;;;;;;;;;;;;;;;349963;28;814;-75
2022/03/07 00:14:44;;;;;;;;;;;;;;;;;;349909;28;901;-75
2022/03/07 00:14:54;;;;;;;;;;;;;;;;;;349951;28;1004;-75
2022/03/07 00:15:04;;;;;;;;;;;;;;;;;;349953;28;1039;-75
2022/03/07 00:15:16;;;;;;;;;;;;;;;;;;349965;28;888;-75
2022/03/07 00:15:26;;;;;;;;;;;;;;;;;;349869;28;976;-75
2022/03/07 00:15:36;;;;;;;;;;;;;;;;;;349970;28;924;-75
2022/03/07 00:15:46;;;;;;;;;;;;;;;;;;349938;28;921;-75
2022/03/07 00:15:56;;;;;;;;;;;;;;;;;;349943;28;980;-75
2022/03/07 00:16:07;;;;;;;;;;;;;;;;;;349912;28;1072;-75
2022/03/07 00:16:17;;;;;;;;;;;;;;;;;;349932;28;1040;-75
2022/03/07 00:16:27;;;;;;;;;;;;;;;;;;349933;28;892;-75
2022/03/07 00:16:38;;;;;;;;;;;;;;;;;;349945;28;987;-75
2022/03/07 00:16:48;;;;;;;;;;;;;;;;;;349999;28;830;-75
2022/03/07 00:16:58;;;;;;;;;;;;;;;;;;349943;28;944;-75
2022/03/07 00:17:08;;;;;;;;;;;;;;;;;;349921;28;921;-75
2022/03/07 00:17:18;;;;;;;;;;;;;;;;;;349941;28;1155;-75
2022/03/07 00:17:29;;;;;;;;;;;;;;;;;;349892;28;996;-75
2022/03/07 00:17:39;;;;;;;;;;;;;;;;;;349563;28;1832;-75
2022/03/07 00:17:49;;;;;;;;;;;;;;;;;;348537;28;1768;-75
2022/03/07 00:17:59;;;;;;;;;;;;;;;;;;348625;28;972;-75
2022/03/07 00:18:09;;;;;;;;;;;;;;;;;;348579;28;897;-75
2022/03/07 00:18:20;;;;;;;;;;;;;;;;;;348578;28;830;-74
2022/03/07 00:18:30;;;;;;;;;;;;;;;;;;348585;28;957;-74
2022/03/07 00:18:41;;;;;;;;;;;;;;;;;;348535;28;980;-74
2022/03/07 00:18:51;;;;;;;;;;;;;;;;;;348596;28;933;-75
2022/03/07 00:19:02;;;;;;;;;;;;;;;;;;348480;28;1146;-74
2022/03/07 00:19:12;;;;;;;;;;;;;;;;;;348539;28;972;-75
2022/03/07 00:19:22;;;;;;;;;;;;;;;;;;348560;28;1008;-75
2022/03/07 00:19:33;;;;;;;;;;;;;;;;;;348578;28;822;-75
2022/03/07 00:19:43;;;;;;;;;;;;;;;;;;348572;28;933;-75
2022/03/07 00:19:53;;;;;;;;;;;;;;;;;;348510;28;1207;-74
2022/03/07 00:20:04;;;;;;;;;;;;;;;;;;348554;28;977;-74
2022/03/07 00:20:15;;;;;;;;;;;;;;;;;;348515;28;1135;-74
2022/03/07 00:20:25;;;;;;;;;;;;;;;;;;348581;28;1023;-75
2022/03/07 00:20:36;;;;;;;;;;;;;;;;;;348558;28;822;-75
2022/03/07 00:20:46;;;;;;;;;;;;;;;;;;348539;28;1019;-75
2022/03/07 00:20:56;;;;;;;;;;;;;;;;;;348556;28;929;-75
2022/03/07 00:21:07;;;;;;;;;;;;;;;;;;348540;28;921;-75
2022/03/07 00:21:18;;;;;;;;;;;;;;;;;;348557;28;1000;-74
2022/03/07 00:21:28;;;;;;;;;;;;;;;;;;348609;28;881;-74
2022/03/07 00:21:39;;;;;;;;;;;;;;;;;;348434;28;996;-75
2022/03/07 00:21:49;;;;;;;;;;;;;;;;;;348571;28;914;-75
2022/03/07 00:21:59;;;;;;;;;;;;;;;;;;348541;28;730;-75
2022/03/07 00:22:09;;;;;;;;;;;;;;;;;;348521;28;968;-75
2022/03/07 00:22:19;;;;;;;;;;;;;;;;;;348581;28;941;-75
2022/03/07 00:22:30;;;;;;;;;;;;;;;;;;348626;28;877;-74
2022/03/07 00:22:40;;;;;;;;;;;;;;;;;;348561;28;921;-75
2022/03/07 00:22:50;;;;;;;;;;;;;;;;;;348553;28;929;-75
2022/03/07 00:23:00;;;;;;;;;;;;;;;;;;348466;28;1975;-75
2022/03/07 00:23:11;;;;;;;;;;;;;;;;;;348531;28;905;-75
2022/03/07 00:23:21;;;;;;;;;;;;;;;;;;348574;28;925;-75
2022/03/07 00:23:32;;;;;;;;;;;;;;;;;;348598;28;896;-75
2022/03/07 00:23:42;;;;;;;;;;;;;;;;;;348518;28;877;-75
2022/03/07 00:23:53;;;;;;;;;;;;;;;;;;348593;28;877;-75
2022/03/07 00:24:04;;;;;;;;;;;;;;;;;;348574;28;850;-75
2022/03/07 00:24:14;;;;;;;;;;;;;;;;;;348511;28;925;-75
2022/03/07 00:24:24;;;;;;;;;;;;;;;;;;348586;28;771;-74
2022/03/07 00:24:34;;;;;;;;;;;;;;;;;;348399;28;976;-75
2022/03/07 00:24:45;;;;;;;;;;;;;;;;;;348311;28;1118;-75
2022/03/07 00:24:55;;;;;;;;;;;;;;;;;;348416;28;984;-75
2022/03/07 00:25:05;;;;;;;;;;;;;;;;;;348419;28;920;-74
2022/03/07 00:25:16;;;;;;;;;;;;;;;;;;348469;28;933;-75
2022/03/07 00:25:26;;;;;;;;;;;;;;;;;;348558;28;992;-74
2022/03/07 00:25:37;;;;;;;;;;;;;;;;;;348580;28;937;-75
2022/03/07 00:25:47;;;;;;;;;;;;;;;;;;348529;28;789;-74
2022/03/07 00:25:58;;;;;;;;;;;;;;;;;;348535;28;928;-75
2022/03/07 00:26:08;;;;;;;;;;;;;;;;;;348559;28;933;-75
2022/03/07 00:26:18;;;;;;;;;;;;;;;;;;348584;28;798;-75
2022/03/07 00:26:28;;;;;;;;;;;;;;;;;;348593;28;846;-75
2022/03/07 00:26:39;;;;;;;;;;;;;;;;;;348495;28;984;-74
2022/03/07 00:26:49;;;;;;;;;;;;;;;;;;348598;28;849;-74
2022/03/07 00:27:00;;;;;;;;;;;;;;;;;;348624;28;1020;-74
2022/03/07 00:27:10;;;;;;;;;;;;;;;;;;348523;28;1016;-75
2022/03/07 00:27:20;;;;;;;;;;;;;;;;;;348568;28;979;-75
2022/03/07 00:27:30;;;;;;;;;;;;;;;;;;348440;28;1836;-74
2022/03/07 00:27:41;;;;;;;;;;;;;;;;;;348980;28;1762;-74
2022/03/07 00:27:51;;;;;;;;;;;;;;;;;;349565;28;1769;-75
2022/03/07 00:28:01;;;;;;;;;;;;;;;;;;348526;28;1808;-74
2022/03/07 00:28:13;;;;;;;;;;;;;;;;;;349924;28;913;-75
2022/03/07 00:28:24;;;;;;;;;;;;;;;;;;349975;28;775;-75
2022/03/07 00:28:34;;;;;;;;;;;;;;;;;;349932;28;929;-75
2022/03/07 00:28:45;;;;;;;;;;;;;;;;;;349867;28;980;-75
2022/03/07 00:28:55;;;;;;;;;;;;;;;;;;349935;28;988;-75
2022/03/07 00:29:05;;;;;;;;;;;;;;;;;;349935;28;972;-75
2022/03/07 00:29:16;;;;;;;;;;;;;;;;;;349989;28;795;-75
2022/03/07 00:29:27;;;;;;;;;;;;;;;;;;349909;28;889;-75
2022/03/07 00:29:38;;;;;;;;;;;;;;;;;;349938;28;944;-75
2022/03/07 00:29:48;;;;;;;;;;;;;;;;;;350001;28;1034;-75
2022/03/07 00:29:58;;;;;;;;;;;;;;;;;;349898;28;917;-75
2022/03/07 00:30:09;;;;;;;;;;;;;;;;;;349856;28;979;-75
2022/03/07 00:30:20;;;;;;;;;;;;;;;;;;349921;28;956;-75
2022/03/07 00:30:30;;;;;;;;;;;;;;;;;;349977;28;945;-75
2022/03/07 00:30:40;;;;;;;;;;;;;;;;;;349955;28;978;-75
2022/03/07 00:30:50;;;;;;;;;;;;;;;;;;349908;28;917;-75
2022/03/07 00:31:00;;;;;;;;;;;;;;;;;;349929;28;1007;-75
2022/03/07 00:31:11;;;;;;;;;;;;;;;;;;349958;28;798;-74
2022/03/07 00:31:22;;;;;;;;;;;;;;;;;;349965;28;988;-74
2022/03/07 00:31:32;;;;;;;;;;;;;;;;;;349906;28;918;-75
2022/03/07 00:31:43;;;;;;;;;;;;;;;;;;349999;28;854;-75
2022/03/07 00:31:53;;;;;;;;;;;;;;;;;;349947;28;901;-75
2022/03/07 00:32:04;;;;;;;;;;;;;;;;;;349924;28;933;-74
2022/03/07 00:32:14;;;;;;;;;;;;;;;;;;349827;28;1046;-75
2022/03/07 00:32:24;;;;;;;;;;;;;;;;;;349951;28;1019;-74
2022/03/07 00:32:34;;;;;;;;;;;;;;;;;;349894;28;1207;-75
2022/03/07 00:32:44;;;;;;;;;;;;;;;;;;349973;28;905;-74
2022/03/07 00:32:55;;;;;;;;;;;;;;;;;;349905;28;979;-75
2022/03/07 00:33:05;;;;;;;;;;;;;;;;;;349954;28;996;-75
2022/03/07 00:33:18;;;;;;;;;;;;;;;;;;349883;28;999;-75
2022/03/07 00:33:28;;;;;;;;;;;;;;;;;;349931;28;988;-75
2022/03/07 00:33:38;;;;;;;;;;;;;;;;;;349987;28;905;-75
2022/03/07 00:33:49;;;;;;;;;;;;;;;;;;349954;28;925;-75
2022/03/07 00:33:59;;;;;;;;;;;;;;;;;;349988;28;917;-74
2022/03/07 00:34:09;;;;;;;;;;;;;;;;;;349834;28;1009;-75
2022/03/07 00:34:20;;;;;;;;;;;;;;;;;;349927;28;917;-75
2022/03/07 00:34:30;;;;;;;;;;;;;;;;;;349952;28;833;-75
2022/03/07 00:34:40;;;;;;;;;;;;;;;;;;349960;28;904;-75
2022/03/07 00:34:50;;;;;;;;;;;;;;;;;;349943;28;903;-75
2022/03/07 00:35:01;;;;;;;;;;;;;;;;;;349947;28;972;-75
2022/03/07 00:35:11;;;;;;;;;;;;;;;;;;349985;28;829;-74
2022/03/07 00:35:22;;;;;;;;;;;;;;;;;;349888;28;776;-74
2022/03/07 00:35:32;;;;;;;;;;;;;;;;;;349912;28;880;-75
2022/03/07 00:35:42;;;;;;;;;;;;;;;;;;349962;28;779;-75
2022/03/07 00:35:53;;;;;;;;;;;;;;;;;;349879;28;1214;-74
2022/03/07 00:36:04;;;;;;;;;;;;;;;;;;349902;28;917;-75
2022/03/07 00:36:15;;;;;;;;;;;;;;;;;;349803;28;917;-75
2022/03/07 00:36:26;;;;;;;;;;;;;;;;;;349943;28;948;-75
2022/03/07 00:36:36;;;;;;;;;;;;;;;;;;349920;28;869;-75
2022/03/07 00:36:46;;;;;;;;;;;;;;;;;;349978;28;869;-75
2022/03/07 00:36:56;;;;;;;;;;;;;;;;;;349898;28;921;-75
2022/03/07 00:37:06;;;;;;;;;;;;;;;;;;350019;28;957;-75
2022/03/07 00:37:17;;;;;;;;;;;;;;;;;;349885;28;933;-74
2022/03/07 00:37:27;;;;;;;;;;;;;;;;;;349895;28;1130;-75
2022/03/07 00:37:38;;;;;;;;;;;;;;;;;;349937;28;867;-74
2022/03/07 00:37:48;;;;;;;;;;;;;;;;;;349937;28;894;-75
2022/03/07 00:37:58;;;;;;;;;;;;;;;;;;349910;28;957;-75
2022/03/07 00:38:08;;;;;;;;;;;;;;;;;;349959;28;929;-74
2022/03/07 00:38:18;;;;;;;;;;;;;;;;;;349793;28;1011;-74
2022/03/07 00:38:29;;;;;;;;;;;;;;;;;;349944;28;783;-75
2022/03/07 00:38:39;;;;;;;;;;;;;;;;;;349900;28;854;-75
2022/03/07 00:38:49;;;;;;;;;;;;;;;;;;351054;28;1323;-75
2022/03/07 00:38:59;;;;;;;;;;;;;;;;;;351326;28;987;-75
2022/03/07 00:39:10;;;;;;;;;;;;;;;;;;351348;28;908;-74
2022/03/07 00:39:20;;;;;;;;;;;;;;;;;;351253;28;996;-75
2022/03/07 00:39:30;;;;;;;;;;;;;;;;;;351297;28;1019;-74
2022/03/07 00:39:40;;;;;;;;;;;;;;;;;;351282;28;1031;-75
2022/03/07 00:39:51;;;;;;;;;;;;;;;;;;351352;28;929;-75
2022/03/07 00:40:01;;;;;;;;;;;;;;;;;;351381;28;855;-74
2022/03/07 00:40:11;;;;;;;;;;;;;;;;;;351355;28;996;-75
2022/03/07 00:40:22;;;;;;;;;;;;;;;;;;351271;28;845;-75
2022/03/07 00:40:33;;;;;;;;;;;;;;;;;;351317;28;921;-74
2022/03/07 00:40:43;;;;;;;;;;;;;;;;;;351329;28;868;-75
2022/03/07 00:40:53;;;;;;;;;;;;;;;;;;348801;28;1800;-75
2022/03/07 00:41:03;;;;;;;;;;;;;;;;;;349220;28;1777;-75
2022/03/07 00:41:14;;;;;;;;;;;;;;;;;;349907;28;996;-75
2022/03/07 00:41:24;;;;;;;;;;;;;;;;;;349904;28;971;-75
2022/03/07 00:41:34;;;;;;;;;;;;;;;;;;349594;28;1788;-74
2022/03/07 00:41:44;;;;;;;;;;;;;;;;;;348667;28;1741;-75
2022/03/07 00:41:55;;;;;;;;;;;;;;;;;;349847;28;1738;-75
2022/03/07 00:42:05;;;;;;;;;;;;;;;;;;349937;28;898;-75
2022/03/07 00:42:15;;;;;;;;;;;;;;;;;;349930;28;757;-74
2022/03/07 00:42:25;;;;;;;;;;;;;;;;;;349830;28;921;-74
2022/03/07 00:42:37;;;;;;;;;;;;;;;;;;349932;28;1019;-74
2022/03/07 00:42:48;;;;;;;;;;;;;;;;;;349875;28;1090;-75
2022/03/07 00:42:58;;;;;;;;;;;;;;;;;;349987;28;782;-75
2022/03/07 00:43:08;;;;;;;;;;;;;;;;;;349785;28;1902;-75
2022/03/07 00:43:21;;;;;;;;;;;;;;;;;;349918;28;1015;-75
2022/03/07 00:43:31;;;;;;;;;;;;;;;;;;349875;28;877;-75
2022/03/07 00:43:42;;;;;;;;;;;;;;;;;;349988;28;937;-74
2022/03/07 00:43:52;;;;;;;;;;;;;;;;;;349901;28;882;-74
2022/03/07 00:44:02;;;;;;;;;;;;;;;;;;349970;28;945;-75
2022/03/07 00:44:12;;;;;;;;;;;;;;;;;;349864;28;977;-75
2022/03/07 00:44:22;;;;;;;;;;;;;;;;;;349953;28;1012;-74
2022/03/07 00:44:33;;;;;;;;;;;;;;;;;;349829;28;892;-74
2022/03/07 00:44:43;;;;;;;;;;;;;;;;;;349977;28;842;-75
2022/03/07 00:44:53;;;;;;;;;;;;;;;;;;349903;28;983;-74
2022/03/07 00:45:07;;;;;;;;;;;;;;;;;;349915;28;1024;-75
2022/03/07 00:45:17;;;;;;;;;;;;;;;;;;349901;28;945;-74
2022/03/07 00:45:27;;;;;;;;;;;;;;;;;;349944;28;1207;-75
2022/03/07 00:45:38;;;;;;;;;;;;;;;;;;349869;28;997;-75
2022/03/07 00:45:48;;;;;;;;;;;;;;;;;;349947;28;925;-75
2022/03/07 00:45:59;;;;;;;;;;;;;;;;;;349940;28;884;-75
2022/03/07 00:46:09;;;;;;;;;;;;;;;;;;349944;28;928;-75
2022/03/07 00:46:19;;;;;;;;;;;;;;;;;;349904;28;933;-75
2022/03/07 00:46:29;;;;;;;;;;;;;;;;;;349966;28;774;-75
2022/03/07 00:46:40;;;;;;;;;;;;;;;;;;349882;28;975;-75
2022/03/07 00:46:50;;;;;;;;;;;;;;;;;;349956;28;905;-75
2022/03/07 00:47:00;;;;;;;;;;;;;;;;;;349935;28;889;-75
2022/03/07 00:47:10;;;;;;;;;;;;;;;;;;349897;28;1011;-75
2022/03/07 00:47:21;;;;;;;;;;;;;;;;;;349931;28;973;-74
2022/03/07 00:47:31;;;;;;;;;;;;;;;;;;349935;28;865;-75
2022/03/07 00:47:41;;;;;;;;;;;;;;;;;;349890;28;944;-75
2022/03/07 00:47:52;;;;;;;;;;;;;;;;;;349922;28;1003;-75
2022/03/07 00:48:02;;;;;;;;;;;;;;;;;;349948;28;818;-74
2022/03/07 00:48:12;;;;;;;;;;;;;;;;;;349926;28;937;-75
2022/03/07 00:48:23;;;;;;;;;;;;;;;;;;349932;28;880;-75
2022/03/07 00:48:33;;;;;;;;;;;;;;;;;;349939;28;976;-75
2022/03/07 00:48:43;;;;;;;;;;;;;;;;;;349931;28;861;-75
2022/03/07 00:48:53;;;;;;;;;;;;;;;;;;348976;28;1911;-75
2022/03/07 00:49:04;;;;;;;;;;;;;;;;;;348990;28;1789;-74
2022/03/07 00:49:14;;;;;;;;;;;;;;;;;;349877;28;1462;-75
2022/03/07 00:49:24;;;;;;;;;;;;;;;;;;349981;28;884;-75
2022/03/07 00:49:34;;;;;;;;;;;;;;;;;;349898;28;933;-74
2022/03/07 00:49:44;;;;;;;;;;;;;;;;;;349909;28;897;-75
2022/03/07 00:49:55;;;;;;;;;;;;;;;;;;349610;28;1780;-75
2022/03/07 00:50:05;;;;;;;;;;;;;;;;;;348867;28;1737;-75
2022/03/07 00:50:16;;;;;;;;;;;;;;;;;;348504;28;1750;-74
2022/03/07 00:50:26;;;;;;;;;;;;;;;;;;349424;28;1671;-75
2022/03/07 00:50:42;;;;;;;;;;;;;;;;;;349962;28;845;-75
2022/03/07 00:50:52;;;;;;;;;;;;;;;;;;349591;28;1871;-74
2022/03/07 00:51:02;;;;;;;;;;;;;;;;;;349901;28;992;-74
2022/03/07 00:51:13;;;;;;;;;;;;;;;;;;349941;28;774;-75
2022/03/07 00:51:26;;;;;;;;;;;;;;;;;;349957;28;987;-75
2022/03/07 00:51:36;;;;;;;;;;;;;;;;;;349824;28;1004;-75
2022/03/07 00:51:46;;;;;;;;;;;;;;;;;;349969;28;846;-75
2022/03/07 00:51:57;;;;;;;;;;;;;;;;;;349914;28;1012;-75
2022/03/07 00:52:07;;;;;;;;;;;;;;;;;;349891;28;941;-75
2022/03/07 00:52:17;;;;;;;;;;;;;;;;;;349965;28;862;-75
2022/03/07 00:52:28;;;;;;;;;;;;;;;;;;349887;28;925;-75
2022/03/07 00:52:38;;;;;;;;;;;;;;;;;;349550;28;1840;-74
2022/03/07 00:52:48;;;;;;;;;;;;;;;;;;349915;28;972;-74
2022/03/07 00:52:59;;;;;;;;;;;;;;;;;;349906;28;1008;-75
2022/03/07 00:53:10;;;;;;;;;;;;;;;;;;349902;28;802;-75
2022/03/07 00:53:21;;;;;;;;;;;;;;;;;;349981;28;978;-75
2022/03/07 00:53:31;;;;;;;;;;;;;;;;;;349908;28;786;-75
2022/03/07 00:53:42;;;;;;;;;;;;;;;;;;349899;28;952;-75
2022/03/07 00:53:52;;;;;;;;;;;;;;;;;;349917;28;1031;-74
2022/03/07 00:54:02;;;;;;;;;;;;;;;;;;349950;28;972;-74
2022/03/07 00:54:13;;;;;;;;;;;;;;;;;;349942;28;880;-74
2022/03/07 00:54:23;;;;;;;;;;;;;;;;;;349953;28;936;-75
2022/03/07 00:54:34;;;;;;;;;;;;;;;;;;349922;28;936;-75
2022/03/07 00:54:44;;;;;;;;;;;;;;;;;;349888;28;883;-74
2022/03/07 00:54:54;;;;;;;;;;;;;;;;;;349931;28;963;-75
2022/03/07 00:55:05;;;;;;;;;;;;;;;;;;349900;28;979;-74
2022/03/07 00:55:15;;;;;;;;;;;;;;;;;;349927;28;813;-75
2022/03/07 00:55:25;;;;;;;;;;;;;;;;;;349913;28;928;-74
2022/03/07 00:55:36;;;;;;;;;;;;;;;;;;349950;28;861;-74
2022/03/07 00:55:46;;;;;;;;;;;;;;;;;;348775;28;1833;-75
2022/03/07 00:55:56;;;;;;;;;;;;;;;;;;349249;28;1952;-75
2022/03/07 00:56:07;;;;;;;;;;;;;;;;;;349920;28;1003;-75
2022/03/07 00:56:17;;;;;;;;;;;;;;;;;;349894;28;936;-75
2022/03/07 00:56:27;;;;;;;;;;;;;;;;;;349992;28;869;-75
2022/03/07 00:56:38;;;;;;;;;;;;;;;;;;350014;28;809;-74
2022/03/07 00:56:48;;;;;;;;;;;;;;;;;;349840;28;1473;-74
2022/03/07 00:56:58;;;;;;;;;;;;;;;;;;349924;28;932;-75
2022/03/07 00:57:08;;;;;;;;;;;;;;;;;;349883;28;993;-74
2022/03/07 00:57:19;;;;;;;;;;;;;;;;;;349899;28;896;-74
2022/03/07 00:57:29;;;;;;;;;;;;;;;;;;349985;28;908;-75
2022/03/07 00:57:39;;;;;;;;;;;;;;;;;;349977;28;936;-75
2022/03/07 00:57:49;;;;;;;;;;;;;;;;;;349822;28;965;-74
2022/03/07 00:58:00;;;;;;;;;;;;;;;;;;349919;28;964;-75
2022/03/07 00:58:10;;;;;;;;;;;;;;;;;;349945;28;872;-75
2022/03/07 00:58:21;;;;;;;;;;;;;;;;;;349896;28;920;-75
2022/03/07 00:58:32;;;;;;;;;;;;;;;;;;349935;28;940;-75
2022/03/07 00:58:42;;;;;;;;;;;;;;;;;;352623;28;861;-74
2022/03/07 00:58:52;;;;;;;;;;;;;;;;;;352569;28;932;-74
2022/03/07 00:59:02;;;;;;;;;;;;;;;;;;352580;28;1016;-75
2022/03/07 00:59:13;;;;;;;;;;;;;;;;;;352424;28;1170;-75
2022/03/07 00:59:23;;;;;;;;;;;;;;;;;;352607;28;917;-75
2022/03/07 00:59:33;;;;;;;;;;;;;;;;;;352634;28;967;-75
2022/03/07 00:59:43;;;;;;;;;;;;;;;;;;352614;28;932;-75
2022/03/07 00:59:55;;;;;;;;;;;;;;;;;;352590;28;998;-75
2022/03/07 01:00:06;;;;;;;;;;;;;;;;;;352615;28;1039;-75
2022/03/07 01:00:16;;;;;;;;;;;;;;;;;;352576;28;924;-75
2022/03/07 01:00:26;;;;;;;;;;;;;;;;;;352627;28;921;-75
2022/03/07 01:00:37;;;;;;;;;;;;;;;;;;351666;28;928;-75
2022/03/07 01:00:48;;;;;;;;;;;;;;;;;;349907;28;976;-75
2022/03/07 01:00:58;;;;;;;;;;;;;;;;;;349952;28;988;-75
2022/03/07 01:01:09;;;;;;;;;;;;;;;;;;349853;28;991;-74
2022/03/07 01:01:19;;;;;;;;;;;;;;;;;;349444;28;1825;-75
2022/03/07 01:01:30;;;;;;;;;;;;;;;;;;348654;28;1804;-74
2022/03/07 01:01:40;;;;;;;;;;;;;;;;;;349819;28;1277;-75
2022/03/07 01:01:50;;;;;;;;;;;;;;;;;;349902;28;960;-75
2022/03/07 01:02:00;;;;;;;;;;;;;;;;;;349959;28;893;-75
2022/03/07 01:02:11;;;;;;;;;;;;;;;;;;349852;28;1132;-75
2022/03/07 01:02:21;;;;;;;;;;;;;;;;;;349895;28;1027;-75
2022/03/07 01:02:32;;;;;;;;;;;;;;;;;;349899;28;858;-74
2022/03/07 01:02:42;;;;;;;;;;;;;;;;;;349922;28;909;-75
2022/03/07 01:02:52;;;;;;;;;;;;;;;;;;349905;28;944;-75
2022/03/07 01:03:04;;;;;;;;;;;;;;;;;;349903;28;1914;-75
2022/03/07 01:03:15;;;;;;;;;;;;;;;;;;349829;28;1007;-75
2022/03/07 01:03:25;;;;;;;;;;;;;;;;;;349882;28;1027;-75
2022/03/07 01:03:36;;;;;;;;;;;;;;;;;;350000;28;817;-74
2022/03/07 01:03:46;;;;;;;;;;;;;;;;;;349969;28;850;-74
2022/03/07 01:03:56;;;;;;;;;;;;;;;;;;349885;28;861;-75
2022/03/07 01:04:06;;;;;;;;;;;;;;;;;;349814;28;1172;-75
2022/03/07 01:04:17;;;;;;;;;;;;;;;;;;349995;28;893;-75
2022/03/07 01:04:27;;;;;;;;;;;;;;;;;;349934;28;944;-75
2022/03/07 01:04:37;;;;;;;;;;;;;;;;;;349899;28;1039;-75
2022/03/07 01:04:47;;;;;;;;;;;;;;;;;;349926;28;951;-75
2022/03/07 01:04:59;;;;;;;;;;;;;;;;;;349901;28;995;-74
2022/03/07 01:05:09;;;;;;;;;;;;;;;;;;349939;28;955;-74
2022/03/07 01:05:19;;;;;;;;;;;;;;;;;;349815;28;1416;-75
2022/03/07 01:05:29;;;;;;;;;;;;;;;;;;349884;28;848;-74
2022/03/07 01:05:41;;;;;;;;;;;;;;;;;;349063;28;1615;-74
2022/03/07 01:05:51;;;;;;;;;;;;;;;;;;348532;28;870;-74
2022/03/07 01:06:01;;;;;;;;;;;;;;;;;;348570;28;964;-75
2022/03/07 01:06:11;;;;;;;;;;;;;;;;;;348502;28;862;-75
2022/03/07 01:06:22;;;;;;;;;;;;;;;;;;348527;28;1027;-75
2022/03/07 01:06:32;;;;;;;;;;;;;;;;;;348566;28;964;-75
2022/03/07 01:06:42;;;;;;;;;;;;;;;;;;348606;28;846;-74
2022/03/07 01:06:52;;;;;;;;;;;;;;;;;;348551;28;921;-74
2022/03/07 01:07:03;;;;;;;;;;;;;;;;;;348465;28;959;-75
2022/03/07 01:07:13;;;;;;;;;;;;;;;;;;348541;28;940;-75
2022/03/07 01:07:23;;;;;;;;;;;;;;;;;;348492;28;1008;-75
2022/03/07 01:07:33;;;;;;;;;;;;;;;;;;348553;28;849;-74
2022/03/07 01:07:44;;;;;;;;;;;;;;;;;;348561;28;857;-74
2022/03/07 01:07:54;;;;;;;;;;;;;;;;;;348494;28;992;-75
2022/03/07 01:08:04;;;;;;;;;;;;;;;;;;348591;28;932;-75
2022/03/07 01:08:15;;;;;;;;;;;;;;;;;;348547;28;965;-74
2022/03/07 01:08:26;;;;;;;;;;;;;;;;;;348596;28;940;-74
2022/03/07 01:08:36;;;;;;;;;;;;;;;;;;348511;28;985;-74
2022/03/07 01:08:46;;;;;;;;;;;;;;;;;;348490;28;1023;-75
2022/03/07 01:08:57;;;;;;;;;;;;;;;;;;348560;28;887;-74
2022/03/07 01:09:07;;;;;;;;;;;;;;;;;;348562;28;849;-74
2022/03/07 01:09:17;;;;;;;;;;;;;;;;;;348516;28;1022;-75
2022/03/07 01:09:27;;;;;;;;;;;;;;;;;;348510;28;921;-74
2022/03/07 01:09:38;;;;;;;;;;;;;;;;;;348489;28;1004;-74
2022/03/07 01:09:48;;;;;;;;;;;;;;;;;;348569;28;928;-74
2022/03/07 01:09:58;;;;;;;;;;;;;;;;;;348529;28;956;-74
2022/03/07 01:10:09;;;;;;;;;;;;;;;;;;348507;28;976;-75
2022/03/07 01:10:19;;;;;;;;;;;;;;;;;;348552;28;857;-74
2022/03/07 01:10:29;;;;;;;;;;;;;;;;;;348530;28;838;-75
2022/03/07 01:10:39;;;;;;;;;;;;;;;;;;348543;28;933;-74
2022/03/07 01:10:50;;;;;;;;;;;;;;;;;;348531;28;765;-75
2022/03/07 01:11:00;;;;;;;;;;;;;;;;;;348516;28;960;-75
2022/03/07 01:11:10;;;;;;;;;;;;;;;;;;348511;28;1070;-75
2022/03/07 01:11:20;;;;;;;;;;;;;;;;;;348538;28;873;-75
2022/03/07 01:11:31;;;;;;;;;;;;;;;;;;348426;28;1777;-75
2022/03/07 01:11:41;;;;;;;;;;;;;;;;;;349339;28;1745;-75
2022/03/07 01:11:52;;;;;;;;;;;;;;;;;;349957;28;925;-75
2022/03/07 01:12:02;;;;;;;;;;;;;;;;;;349724;28;1809;-75
2022/03/07 01:12:12;;;;;;;;;;;;;;;;;;348517;28;860;-74
2022/03/07 01:12:22;;;;;;;;;;;;;;;;;;348544;28;932;-75
2022/03/07 01:12:33;;;;;;;;;;;;;;;;;;348577;28;1019;-75
2022/03/07 01:12:43;;;;;;;;;;;;;;;;;;348477;28;953;-75
2022/03/07 01:12:54;;;;;;;;;;;;;;;;;;348551;28;861;-75
2022/03/07 01:13:05;;;;;;;;;;;;;;;;;;348577;28;778;-75
2022/03/07 01:13:15;;;;;;;;;;;;;;;;;;348472;28;933;-75
2022/03/07 01:13:26;;;;;;;;;;;;;;;;;;348518;28;1153;-74
2022/03/07 01:13:36;;;;;;;;;;;;;;;;;;348548;28;933;-74
2022/03/07 01:13:46;;;;;;;;;;;;;;;;;;348496;28;889;-75
2022/03/07 01:13:56;;;;;;;;;;;;;;;;;;348492;28;964;-75
2022/03/07 01:14:07;;;;;;;;;;;;;;;;;;348514;28;1147;-75
2022/03/07 01:14:17;;;;;;;;;;;;;;;;;;348566;28;885;-75
2022/03/07 01:14:27;;;;;;;;;;;;;;;;;;348570;28;874;-75
2022/03/07 01:14:38;;;;;;;;;;;;;;;;;;348536;28;909;-75